Time;durP1;ratioP1;P1;durP2;ratioP2;P2;SDS_P1;SDS_P2;PMS_P1;PMS_P2;Temp;Humidity;BMP_temperature;BMP_pressure;BME280_temperature;BME280_humidity;BME280_pressure;Samples;Min_cycle;Max_cycle;Signal;HPM_P1;HPM_P2
2022/11/07 00:00:19;;;;;;;20.13;10.80;;;;;;;16.59;60.36;101520.34;4978821;28;20434;-79
2022/11/07 00:02:45;;;;;;;17.47;10.37;;;;;;;16.52;60.62;101520.28;4987987;28;20397;-79
2022/11/07 00:05:10;;;;;;;16.13;10.67;;;;;;;16.62;60.28;101523.47;4977529;28;20398;-79
2022/11/07 00:07:36;;;;;;;18.75;10.70;;;;;;;16.60;60.33;101520.16;4978565;28;20398;-79
2022/11/07 00:10:01;;;;;;;16.43;10.83;;;;;;;16.56;60.45;101518.88;4976842;28;20407;-79
2022/11/07 00:12:27;;;;;;;16.20;10.50;;;;;;;16.48;60.92;101520.88;4976970;28;20478;-79
2022/11/07 00:14:53;;;;;;;19.20;10.53;;;;;;;16.55;60.45;101527.13;4978768;28;20988;-79
2022/11/07 00:17:18;;;;;;;14.80;10.00;;;;;;;16.58;60.43;101532.06;4978762;28;20463;-79
2022/11/07 00:19:44;;;;;;;17.17;10.48;;;;;;;16.46;60.52;101534.44;4976284;28;20384;-79
2022/11/07 00:22:09;;;;;;;18.07;10.20;;;;;;;16.56;60.35;101536.78;4970344;28;20393;-78
2022/11/07 00:24:34;;;;;;;19.73;10.25;;;;;;;16.53;60.40;101537.16;4970892;28;20824;-79
2022/11/07 00:27:00;;;;;;;16.83;10.30;;;;;;;16.50;60.32;101533.03;5010000;28;20396;-79
2022/11/07 00:29:26;;;;;;;17.27;9.70;;;;;;;16.58;60.36;101534.75;4977538;28;20415;-79
2022/11/07 00:31:51;;;;;;;18.37;10.57;;;;;;;16.67;59.91;101532.78;4978171;28;20403;-79
2022/11/07 00:34:17;;;;;;;15.60;10.15;;;;;;;16.61;59.96;101527.16;4991897;28;20402;-79
2022/11/07 00:36:42;;;;;;;16.07;9.57;;;;;;;16.57;60.03;101531.25;4977303;28;20392;-79
2022/11/07 00:39:09;;;;;;;17.20;9.93;;;;;;;16.59;59.99;101536.41;4977802;28;20394;-79
2022/11/07 00:41:35;;;;;;;17.17;9.80;;;;;;;16.60;60.13;101538.06;4973314;28;20410;-79
2022/11/07 00:44:00;;;;;;;18.60;9.17;;;;;;;16.62;60.03;101533.38;4977273;28;20395;-79
2022/11/07 00:46:25;;;;;;;16.05;9.65;;;;;;;16.63;59.95;101537.69;4997541;28;20465;-79
2022/11/07 00:48:51;;;;;;;14.53;9.70;;;;;;;16.65;59.97;101527.63;4976525;28;20411;-79
2022/11/07 00:51:25;;;;;;;16.60;9.77;;;;;;;16.61;59.95;101529.84;4977498;28;20387;-79
2022/11/07 00:53:52;;;;;;;16.33;10.30;;;;;;;16.61;59.91;101532.50;4974373;28;20385;-79
2022/11/07 00:56:20;;;;;;;16.93;9.60;;;;;;;16.68;59.69;101529.09;4976871;28;20382;-80
2022/11/07 00:58:45;;;;;;;19.77;9.65;;;;;;;16.55;60.07;101524.44;4964523;28;20421;-78
2022/11/07 01:01:14;;;;;;;16.03;9.83;;;;;;;16.54;60.19;101531.63;4976387;28;20383;-79
2022/11/07 01:06:27;;;;;;;17.15;9.40;;;;;;;16.54;60.14;101531.63;4975403;28;20390;-78
2022/11/07 01:08:55;;;;;;;16.15;9.10;;;;;;;16.57;60.15;101527.75;5006094;28;20399;-78
2022/11/07 01:11:22;;;;;;;15.90;9.75;;;;;;;16.58;59.85;101527.56;4974247;28;20474;-79
2022/11/07 01:13:47;;;;;;;14.93;9.27;;;;;;;16.54;59.91;101525.44;4962203;28;20410;-78
2022/11/07 01:16:13;;;;;;;16.30;9.43;;;;;;;16.60;60.05;101530.88;4962301;28;20731;-78
2022/11/07 01:18:38;;;;;;;15.90;9.38;;;;;;;16.58;60.00;101532.06;4973900;28;20380;-79
2022/11/07 01:21:06;;;;;;;19.13;9.67;;;;;;;16.51;60.42;101523.13;5005979;28;20387;-77
2022/11/07 01:23:31;;;;;;;16.77;9.75;;;;;;;16.51;60.28;101526.66;4960846;28;20515;-78
2022/11/07 01:25:57;;;;;;;15.05;9.68;;;;;;;16.57;60.17;101530.44;5006903;28;20431;-78
2022/11/07 01:28:22;;;;;;;14.10;9.00;;;;;;;16.62;60.19;101536.03;4974486;28;20407;-78
2022/11/07 01:30:47;;;;;;;17.25;8.95;;;;;;;16.59;60.27;101531.06;5006024;28;20395;-78
2022/11/07 01:33:13;;;;;;;16.97;9.70;;;;;;;16.63;60.03;101530.47;4974044;28;20780;-79
2022/11/07 01:35:39;;;;;;;16.70;9.13;;;;;;;16.63;59.92;101527.78;4973553;28;20395;-78
2022/11/07 01:38:05;;;;;;;15.85;9.20;;;;;;;16.57;60.12;101522.41;4968275;28;20475;-78
2022/11/07 01:40:32;;;;;;;17.85;9.20;;;;;;;16.59;60.31;101531.88;4962732;28;20411;-78
2022/11/07 01:42:58;;;;;;;14.57;9.10;;;;;;;16.60;60.14;101527.34;4968669;28;20392;-77
2022/11/07 01:45:29;;;;;;;15.60;9.40;;;;;;;16.67;59.94;101530.94;4974487;28;20401;-78
2022/11/07 01:48:00;;;;;;;14.88;9.05;;;;;;;16.63;59.94;101530.47;4993293;28;20391;-78
2022/11/07 01:50:26;;;;;;;13.40;8.63;;;;;;;16.63;59.91;101529.66;4972951;28;20423;-78
2022/11/07 01:52:55;;;;;;;15.27;9.02;;;;;;;16.60;59.87;101530.03;4975120;28;20398;-78
2022/11/07 01:55:26;;;;;;;15.60;8.70;;;;;;;16.61;59.89;101535.19;4974635;28;20947;-78
2022/11/07 01:57:56;;;;;;;20.75;8.70;;;;;;;16.58;59.82;101532.91;4975065;28;20396;-79
2022/11/07 02:00:23;;;;;;;14.35;8.00;;;;;;;16.57;59.91;101527.75;4967517;28;20442;-78
2022/11/07 02:02:55;;;;;;;16.27;7.33;;;;;;;16.60;59.93;101533.56;4986889;28;20405;-78
2022/11/07 02:05:27;;;;;;;11.63;7.00;;;;;;;16.57;59.92;101539.28;4978860;28;20425;-78
2022/11/07 02:07:53;;;;;;;12.23;6.70;;;;;;;16.51;59.95;101541.88;4971732;28;20395;-79
2022/11/07 02:10:20;;;;;;;14.27;7.22;;;;;;;16.47;60.07;101540.59;5004107;28;20430;-78
2022/11/07 02:12:46;;;;;;;16.17;6.95;;;;;;;16.54;59.89;101541.50;4973452;28;20406;-78
2022/11/07 02:15:11;;;;;;;12.10;6.85;;;;;;;16.54;59.70;101554.88;4974244;28;20465;-79
2022/11/07 02:17:37;;;;;;;13.40;6.90;;;;;;;16.55;59.58;101544.00;4973752;28;20755;-78
2022/11/07 02:20:03;;;;;;;12.57;6.30;;;;;;;16.57;59.76;101539.28;4975150;28;20473;-78
2022/11/07 02:23:01;;;;;;;13.32;6.28;;;;;;;16.60;59.55;101546.94;5005617;28;20384;-78
2022/11/07 02:25:28;;;;;;;10.73;6.07;;;;;;;16.68;59.22;101555.88;4997813;28;20425;-78
2022/11/07 02:28:00;;;;;;;10.90;5.78;;;;;;;16.68;58.96;101551.34;4974777;28;20387;-79
2022/11/07 02:30:29;;;;;;;9.70;6.07;;;;;;;16.65;59.19;101550.88;4978586;28;20453;-79
2022/11/07 02:32:55;;;;;;;10.03;5.67;;;;;;;16.70;58.80;101553.81;4979739;28;20899;-79
2022/11/07 02:35:44;;;;;;;10.57;5.70;;;;;;;16.73;58.84;101559.63;4979358;28;20411;-79
2022/11/07 02:38:16;;;;;;;11.10;5.32;;;;;;;16.77;58.78;101560.91;4973719;28;20391;-79
2022/11/07 02:40:44;;;;;;;10.30;5.60;;;;;;;16.73;58.60;101562.31;4978856;28;20550;-79
2022/11/07 02:43:12;;;;;;;12.43;5.70;;;;;;;16.71;58.55;101569.69;4978854;28;20396;-79
2022/11/07 02:45:41;;;;;;;9.07;5.32;;;;;;;16.63;58.67;101561.78;4975467;28;20478;-79
2022/11/07 02:48:06;;;;;;;10.73;5.88;;;;;;;16.69;58.56;101570.91;4978086;28;20395;-79
2022/11/07 02:50:32;;;;;;;11.95;5.35;;;;;;;16.67;58.55;101564.91;4977006;28;20388;-80
2022/11/07 02:52:58;;;;;;;11.20;5.20;;;;;;;16.74;58.39;101568.47;4977778;28;20402;-79
2022/11/07 02:55:23;;;;;;;9.37;5.37;;;;;;;16.72;58.26;101566.00;4978361;28;20401;-80
2022/11/07 02:57:48;;;;;;;10.13;5.28;;;;;;;16.77;58.06;101573.47;4977784;28;20399;-79
2022/11/07 03:00:15;;;;;;;11.00;5.87;;;;;;;16.73;57.97;101570.34;4977801;28;20454;-79
2022/11/07 03:02:45;;;;;;;10.35;4.95;;;;;;;16.67;58.14;101568.41;4999137;28;20443;-79
2022/11/07 03:05:13;;;;;;;10.15;5.80;;;;;;;16.64;58.26;101579.50;5008967;28;20939;-79
2022/11/07 03:07:41;;;;;;;11.88;5.70;;;;;;;16.70;58.10;101576.06;4977464;28;20396;-79
2022/11/07 03:10:08;;;;;;;10.73;5.40;;;;;;;16.78;57.94;101588.50;4964756;28;20521;-79
2022/11/07 03:12:33;;;;;;;12.95;5.85;;;;;;;16.78;57.77;101581.31;5005406;28;20379;-79
2022/11/07 03:14:58;;;;;;;8.38;5.05;;;;;;;16.65;57.98;101588.38;4976677;28;20442;-79
2022/11/07 03:17:24;;;;;;;10.30;5.60;;;;;;;16.66;58.02;101588.19;4976995;28;20396;-80
2022/11/07 03:19:49;;;;;;;15.32;5.40;;;;;;;16.63;58.02;101592.03;4969590;28;20446;-79
2022/11/07 03:22:15;;;;;;;14.27;6.00;;;;;;;16.64;58.04;101590.22;4977003;28;20430;-79
2022/11/07 03:24:40;;;;;;;13.88;5.32;;;;;;;16.56;58.14;101588.47;4976551;28;20765;-79
2022/11/07 03:27:06;;;;;;;10.53;5.00;;;;;;;16.57;58.09;101594.66;4976913;28;20387;-79
2022/11/07 03:29:31;;;;;;;10.80;5.50;;;;;;;16.54;58.00;101589.69;4979624;28;20550;-79
2022/11/07 03:31:57;;;;;;;11.43;5.37;;;;;;;16.54;58.10;101597.72;4974958;28;20857;-79
2022/11/07 03:34:22;;;;;;;11.50;5.63;;;;;;;16.57;58.03;101589.31;4976140;28;20387;-80
2022/11/07 03:36:47;;;;;;;12.43;5.50;;;;;;;16.67;57.70;101599.72;4976736;28;20395;-80
2022/11/07 03:39:13;;;;;;;10.37;6.07;;;;;;;16.65;57.92;101591.84;4966865;28;20716;-80
2022/11/07 03:41:38;;;;;;;8.27;5.60;;;;;;;16.55;57.95;101602.88;4973502;28;20394;-79
2022/11/07 03:44:04;;;;;;;11.97;5.40;;;;;;;16.56;57.79;101601.03;4976204;28;20396;-79
2022/11/07 03:46:30;;;;;;;11.83;5.20;;;;;;;16.43;58.15;101607.88;4976223;28;20412;-79
2022/11/07 03:48:56;;;;;;;9.00;5.20;;;;;;;16.43;58.18;101604.38;4970493;28;20417;-79
2022/11/07 03:51:21;;;;;;;11.83;5.20;;;;;;;16.50;58.17;101610.63;4974623;28;20391;-79
2022/11/07 03:53:46;;;;;;;8.87;5.27;;;;;;;16.41;58.17;101609.09;4968916;28;20395;-80
2022/11/07 03:56:12;;;;;;;11.37;5.30;;;;;;;16.37;58.42;101613.16;4978115;28;20407;-78
2022/11/07 03:58:38;;;;;;;10.17;5.20;;;;;;;16.50;58.10;101613.31;4986437;28;20985;-78
2022/11/07 04:01:04;;;;;;;9.90;5.60;;;;;;;16.40;58.04;101612.75;4987500;28;20395;-79
2022/11/07 04:03:30;;;;;;;9.60;5.30;;;;;;;16.38;58.26;101612.94;5004138;28;20392;-79
2022/11/07 04:05:55;;;;;;;11.40;6.18;;;;;;;16.51;57.96;101611.47;4985332;28;20467;-79
2022/11/07 04:08:21;;;;;;;11.03;5.30;;;;;;;16.47;57.95;101613.69;4986042;28;20455;-79
2022/11/07 04:10:47;;;;;;;12.03;5.00;;;;;;;16.38;58.24;101617.47;4984037;28;20393;-79
2022/11/07 04:18:37;;;;;;;12.87;5.03;;;;;;;16.41;57.83;101619.78;4983536;28;20466;-80
2022/11/07 04:21:02;;;;;;;9.53;5.30;;;;;;;16.35;58.11;101629.41;4984163;28;20485;-80
2022/11/07 04:23:28;;;;;;;11.52;5.13;;;;;;;16.22;58.17;101618.50;4981231;28;20430;-78
2022/11/07 04:28:38;;;;;;;9.13;4.82;;;;;;;16.31;58.25;101616.56;4977357;28;21233;-80
2022/11/07 04:31:03;;;;;;;11.63;5.38;;;;;;;16.22;58.54;101608.66;5011781;28;21285;-79
2022/11/07 04:33:29;;;;;;;8.40;5.00;;;;;;;16.25;58.61;101613.59;4981865;28;20384;-79
2022/11/07 04:35:54;;;;;;;11.77;5.40;;;;;;;16.08;58.84;101606.81;4990767;28;20395;-81
2022/11/07 04:38:20;;;;;;;11.05;4.95;;;;;;;16.07;58.85;101605.13;4985253;28;20390;-80
2022/11/07 04:40:55;;;;;;;12.05;5.40;;;;;;;16.11;58.89;101606.41;4981772;28;20741;-79
2022/11/07 04:43:22;;;;;;;11.70;6.97;;;;;;;16.03;58.85;101606.53;4980390;28;20399;-80
2022/11/07 04:45:48;;;;;;;10.88;5.30;;;;;;;15.84;59.03;101607.88;4979178;28;20430;-80
2022/11/07 04:48:13;;;;;;;10.87;5.17;;;;;;;15.84;59.10;101610.56;4981639;28;20458;-79
2022/11/07 04:50:39;;;;;;;10.50;5.03;;;;;;;15.83;58.96;101608.91;5014301;28;20399;-80
2022/11/07 04:53:05;;;;;;;11.88;4.95;;;;;;;15.97;58.65;101618.78;4980700;28;20391;-80
2022/11/07 04:55:30;;;;;;;10.20;4.87;;;;;;;16.00;58.55;101617.59;5012919;28;20383;-78
2022/11/07 04:57:56;;;;;;;8.80;4.65;;;;;;;15.93;58.64;101612.13;4981511;28;20398;-79
2022/11/07 05:00:23;;;;;;;9.85;4.88;;;;;;;16.02;58.27;101615.56;4982085;28;20447;-80
2022/11/07 05:02:49;;;;;;;9.60;4.53;;;;;;;16.08;58.23;101616.66;4984213;28;20421;-81
2022/11/07 05:05:16;;;;;;;9.75;4.65;;;;;;;15.96;58.35;101622.47;4985304;28;20392;-81
2022/11/07 05:07:41;;;;;;;8.95;4.47;;;;;;;15.82;58.69;101623.28;5015508;28;20394;-79
2022/11/07 05:10:18;;;;;;;8.85;4.72;;;;;;;15.94;58.42;101624.50;4982957;28;20907;-79
2022/11/07 05:12:43;;;;;;;9.73;4.63;;;;;;;15.92;58.42;101631.03;4982346;28;20394;-80
2022/11/07 05:15:09;;;;;;;14.02;4.93;;;;;;;15.94;58.31;101621.00;4995263;28;20391;-79
2022/11/07 05:17:34;;;;;;;12.90;6.70;;;;;;;15.99;58.28;101635.47;4982802;28;20478;-82
2022/11/07 05:20:00;;;;;;;11.32;4.22;;;;;;;15.93;58.27;101636.19;4981541;28;20782;-81
2022/11/07 05:25:09;;;;;;;8.70;4.40;;;;;;;15.93;58.17;101630.03;4978275;28;20488;-82
2022/11/07 05:27:35;;;;;;;10.93;4.77;;;;;;;15.93;58.18;101638.88;4982391;28;20395;-80
2022/11/07 05:30:00;;;;;;;26.30;23.63;;;;;;;15.90;58.11;101647.28;4986425;28;20451;-80
2022/11/07 05:32:26;;;;;;;9.43;4.53;;;;;;;15.91;58.05;101646.25;4982138;28;20391;-80
2022/11/07 05:34:51;;;;;;;9.97;4.67;;;;;;;15.78;58.56;101656.75;4983047;28;20420;-80
2022/11/07 05:37:17;;;;;;;8.07;4.20;;;;;;;15.70;58.73;101651.44;5013992;28;20426;-80
2022/11/07 05:39:42;;;;;;;8.45;4.15;;;;;;;15.81;58.21;101662.56;4982370;28;20396;-79
2022/11/07 05:42:08;;;;;;;12.37;4.83;;;;;;;15.96;58.22;101662.56;4981182;28;20459;-80
2022/11/07 05:44:33;;;;;;;10.17;4.27;;;;;;;15.95;58.10;101670.78;4980642;28;20400;-80
2022/11/07 05:47:00;;;;;;;12.07;4.63;;;;;;;16.03;57.94;101668.03;4983278;28;20403;-81
2022/11/07 05:49:25;;;;;;;13.07;4.43;;;;;;;15.93;58.05;101672.81;4984618;28;20411;-80
2022/11/07 05:51:52;;;;;;;13.50;4.60;;;;;;;15.85;58.19;101671.06;4967190;28;20435;-80
2022/11/07 05:54:18;;;;;;;10.45;4.38;;;;;;;15.82;58.12;101674.91;5015163;28;20426;-80
2022/11/07 05:56:47;;;;;;;7.70;3.80;;;;;;;15.69;58.42;101677.34;4978938;28;20399;-80
2022/11/07 05:59:12;;;;;;;9.10;4.25;;;;;;;15.65;58.68;101679.53;4985524;28;20387;-81
2022/11/07 06:01:38;;;;;;;12.27;4.20;;;;;;;15.73;58.41;101688.50;4985928;28;20407;-81
2022/11/07 06:04:04;;;;;;;9.93;4.00;;;;;;;15.83;58.19;101691.78;4984943;28;20927;-80
2022/11/07 06:06:30;;;;;;;10.40;4.30;;;;;;;15.86;58.14;101702.09;5019921;28;20486;-81
2022/11/07 06:08:56;;;;;;;9.55;4.25;;;;;;;15.80;58.21;101713.53;4987290;28;20414;-80
2022/11/07 06:11:22;;;;;;;10.13;3.97;;;;;;;15.95;57.75;101713.56;5019649;28;20392;-79
2022/11/07 06:13:48;;;;;;;10.45;4.50;;;;;;;16.07;57.63;101720.13;5019815;28;20387;-81
2022/11/07 06:16:13;;;;;;;11.07;4.40;;;;;;;16.13;57.50;101726.59;5013020;28;20737;-79
2022/11/07 06:18:39;;;;;;;8.93;4.55;;;;;;;16.06;57.58;101729.16;4990899;28;20379;-79
2022/11/07 06:21:04;;;;;;;9.97;4.30;;;;;;;16.08;57.49;101731.66;4994467;28;20391;-81
2022/11/07 06:23:30;;;;;;;11.40;4.53;;;;;;;16.09;57.48;101738.69;5007773;28;20419;-80
2022/11/07 06:25:55;;;;;;;13.23;4.30;;;;;;;16.05;57.56;101740.91;4992317;28;20776;-81
2022/11/07 06:28:21;;;;;;;11.43;4.13;;;;;;;15.96;57.54;101742.81;4993468;28;20454;-79
2022/11/07 06:30:46;;;;;;;13.37;4.17;;;;;;;16.04;57.42;101739.22;4994382;28;20402;-79
2022/11/07 06:33:15;;;;;;;12.67;4.23;;;;;;;16.01;57.56;101750.28;5009908;28;20387;-80
2022/11/07 06:35:41;;;;;;;32.80;5.80;;;;;;;15.97;57.59;101749.81;4993557;28;20465;-79
2022/11/07 06:38:09;;;;;;;15.73;4.38;;;;;;;15.95;57.60;101748.31;4990574;28;20403;-79
2022/11/07 06:40:35;;;;;;;25.70;5.00;;;;;;;15.84;57.91;101749.59;4992500;28;20539;-81
2022/11/07 06:43:13;;;;;;;10.50;4.30;;;;;;;15.93;57.64;101751.19;4994299;28;20387;-82
2022/11/07 06:45:39;;;;;;;7.75;3.90;;;;;;;15.79;57.88;101757.31;4994647;28;20391;-82
2022/11/07 06:48:07;;;;;;;13.63;3.90;;;;;;;15.86;57.87;101744.88;5010943;28;20394;-80
2022/11/07 06:50:33;;;;;;;14.63;4.30;;;;;;;15.90;57.94;101751.56;5004456;28;20883;-80
2022/11/07 06:53:05;;;;;;;9.85;4.03;;;;;;;15.77;58.04;101736.13;4981531;28;20392;-79
2022/11/07 06:55:32;;;;;;;8.60;3.60;;;;;;;15.70;58.37;101748.50;4989247;28;20467;-81
2022/11/07 06:57:59;;;;;;;10.85;3.78;;;;;;;15.86;57.84;101751.09;4991663;28;20848;-80
2022/11/07 07:00:29;;;;;;;12.60;4.10;;;;;;;15.89;57.84;101741.84;4991717;28;20396;-81
2022/11/07 07:02:55;;;;;;;9.68;3.85;;;;;;;15.94;57.75;101744.00;5009709;28;20511;-80
2022/11/07 07:05:20;;;;;;;12.90;4.10;;;;;;;15.94;57.84;101747.50;4989858;28;20413;-80
2022/11/07 07:07:46;;;;;;;12.13;3.70;;;;;;;15.96;58.16;101741.97;5010489;28;20733;-81
2022/11/07 07:10:12;;;;;;;18.02;4.78;;;;;;;15.85;57.86;101746.72;5017180;28;20452;-79
2022/11/07 07:12:37;;;;;;;54.63;6.77;;;;;;;15.91;57.87;101749.72;5001087;28;20488;-80
2022/11/07 07:15:03;;;;;;;12.67;4.40;;;;;;;15.82;58.10;101732.91;4996163;28;20411;-81
2022/11/07 07:17:29;;;;;;;24.75;5.57;;;;;;;15.94;57.68;101722.63;4991659;28;20418;-82
2022/11/07 07:19:54;;;;;;;8.97;4.40;;;;;;;15.89;57.71;101738.38;4990058;28;20393;-80
2022/11/07 07:22:20;;;;;;;17.45;4.63;;;;;;;15.99;57.63;101729.09;5002705;28;20467;-82
2022/11/07 07:24:49;;;;;;;9.13;4.40;;;;;;;15.99;57.53;101728.22;4992635;28;20396;-81
2022/11/07 07:27:19;;;;;;;14.65;4.70;;;;;;;15.90;57.62;101730.16;5027314;28;20427;-80
2022/11/07 07:29:46;;;;;;;8.50;4.25;;;;;;;15.96;57.46;101737.44;4999225;28;20405;-80
2022/11/07 07:32:11;;;;;;;9.07;4.40;;;;;;;16.16;57.17;101728.91;4986960;28;20377;-81
2022/11/07 07:34:37;;;;;;;9.07;4.38;;;;;;;16.20;56.76;101732.88;5020542;28;20420;-80
2022/11/07 07:37:04;;;;;;;10.05;4.05;;;;;;;16.19;56.88;101737.41;4992083;28;20383;-81
2022/11/07 07:39:30;;;;;;;12.30;4.28;;;;;;;16.18;56.89;101741.09;5005973;28;20475;-81
2022/11/07 07:41:55;;;;;;;10.43;4.43;;;;;;;16.14;56.83;101729.09;5001128;28;20383;-80
2022/11/07 07:44:21;;;;;;;12.90;4.75;;;;;;;16.24;56.70;101734.19;4983956;28;20369;-82
2022/11/07 07:46:47;;;;;;;9.98;5.10;;;;;;;16.25;56.55;101739.34;5007782;28;21110;-81
2022/11/07 07:49:14;;;;;;;13.10;5.27;;;;;;;16.38;56.18;101743.25;4995576;28;20406;-82
2022/11/07 07:51:41;;;;;;;11.98;4.75;;;;;;;16.23;56.24;101735.22;4988463;28;20436;-81
2022/11/07 07:54:09;;;;;;;11.48;4.30;;;;;;;16.30;56.16;101740.66;4998101;28;20380;-81
2022/11/07 07:56:35;;;;;;;9.10;4.25;;;;;;;16.30;56.06;101741.50;4976223;28;20486;-79
2022/11/07 07:59:03;;;;;;;10.70;4.70;;;;;;;16.50;55.80;101749.81;5009193;28;20477;-79
2022/11/07 08:01:30;;;;;;;11.50;4.50;;;;;;;16.50;55.77;101740.97;5013945;28;20386;-83
2022/11/07 08:03:55;;;;;;;13.43;4.90;;;;;;;16.61;55.34;101741.31;5004128;28;20408;-81
2022/11/07 08:06:21;;;;;;;10.23;4.20;;;;;;;16.59;55.19;101742.53;4997134;28;20401;-80
2022/11/07 08:08:46;;;;;;;9.17;4.30;;;;;;;16.64;55.00;101740.13;4988952;28;20413;-80
2022/11/07 08:11:12;;;;;;;11.88;4.63;;;;;;;16.62;54.87;101740.31;5026784;28;20410;-79
2022/11/07 08:13:37;;;;;;;9.10;4.17;;;;;;;16.75;54.91;101744.19;4987075;28;20380;-81
2022/11/07 08:16:06;;;;;;;12.48;4.70;;;;;;;16.85;54.71;101742.06;4991734;28;20379;-82
2022/11/07 08:18:32;;;;;;;11.23;4.07;;;;;;;16.85;54.57;101746.59;5016252;28;20396;-80
2022/11/07 08:20:58;;;;;;;8.80;4.07;;;;;;;16.81;54.66;101744.25;4977115;28;20395;-81
2022/11/07 08:23:24;;;;;;;8.95;5.07;;;;;;;16.92;54.51;101736.81;5006466;28;20521;-81
2022/11/07 08:25:53;;;;;;;9.77;4.65;;;;;;;17.06;54.22;101756.56;4991660;28;20467;-81
2022/11/07 08:28:20;;;;;;;12.02;4.45;;;;;;;16.97;54.28;101753.97;4991990;28;20387;-80
2022/11/07 08:31:00;;;;;;;11.85;4.30;;;;;;;16.91;54.09;101754.72;4988152;28;20984;-79
2022/11/07 08:33:29;;;;;;;10.37;4.50;;;;;;;16.90;54.21;101754.91;5017704;28;21276;-81
2022/11/07 08:36:01;;;;;;;14.10;4.75;;;;;;;17.03;54.11;101752.38;4985374;28;20443;-80
2022/11/07 08:38:32;;;;;;;8.57;4.70;;;;;;;17.15;53.85;101758.94;4988676;28;20374;-81
2022/11/07 08:40:58;;;;;;;10.65;4.40;;;;;;;17.11;53.81;101754.16;5005748;28;20403;-82
2022/11/07 08:43:25;;;;;;;14.10;4.53;;;;;;;17.18;53.74;101763.09;4990912;28;20386;-80
2022/11/07 08:45:53;;;;;;;11.43;4.75;;;;;;;17.19;53.50;101757.53;4976968;28;20385;-81
2022/11/07 08:48:19;;;;;;;10.57;4.60;;;;;;;17.12;53.77;101758.47;4980859;28;20453;-81
2022/11/07 08:50:50;;;;;;;11.37;4.50;;;;;;;17.26;53.64;101749.56;4983667;28;20399;-81
2022/11/07 08:53:16;;;;;;;11.27;4.80;;;;;;;17.36;53.58;101762.69;4992155;28;20431;-81
2022/11/07 08:55:41;;;;;;;12.48;5.90;;;;;;;17.42;53.46;101761.09;4992212;28;20396;-81
2022/11/07 08:58:07;;;;;;;10.37;5.07;;;;;;;17.43;53.35;101763.59;4988686;28;20455;-81
2022/11/07 09:00:34;;;;;;;9.65;4.60;;;;;;;17.50;53.11;101755.59;4988266;28;20380;-80
2022/11/07 09:03:02;;;;;;;10.85;4.82;;;;;;;17.64;53.05;101761.94;4990786;28;20474;-81
2022/11/07 09:05:27;;;;;;;9.20;4.30;;;;;;;17.66;52.69;101774.13;4988697;28;20387;-81
2022/11/07 09:07:53;;;;;;;10.50;5.03;;;;;;;17.78;52.78;101763.72;5021816;28;20419;-81
2022/11/07 09:10:18;;;;;;;11.10;5.13;;;;;;;17.92;52.28;101762.84;5021521;28;20450;-81
2022/11/07 09:12:46;;;;;;;12.80;6.20;;;;;;;17.95;52.25;101764.31;4991943;28;20407;-81
2022/11/07 09:15:12;;;;;;;11.32;5.45;;;;;;;18.00;52.20;101764.56;4991301;28;20478;-80
2022/11/07 09:17:38;;;;;;;10.30;5.10;;;;;;;17.99;51.97;101759.38;4988232;28;20387;-81
2022/11/07 09:20:04;;;;;;;12.83;5.87;;;;;;;18.05;51.83;101759.44;4992421;28;20393;-80
2022/11/07 09:23:15;;;;;;;29.00;6.97;;;;;;;18.17;51.79;101758.91;4999915;28;20397;-82
2022/11/07 09:25:41;;;;;;;14.17;5.57;;;;;;;18.15;51.68;101759.94;5015845;28;20387;-81
2022/11/07 09:28:06;;;;;;;16.67;6.63;;;;;;;18.15;51.70;101757.28;4988562;28;20401;-82
2022/11/07 09:30:32;;;;;;;11.43;5.90;;;;;;;18.21;51.44;101762.88;4986894;28;20800;-79
2022/11/07 09:32:58;;;;;;;11.85;5.60;;;;;;;18.08;51.83;101758.25;4984633;28;20398;-80
2022/11/07 09:35:24;;;;;;;10.17;6.07;;;;;;;18.20;51.64;101747.78;4992692;28;20435;-81
2022/11/07 09:37:50;;;;;;;14.18;5.95;;;;;;;18.21;51.42;101736.06;4990624;28;20435;-81
2022/11/07 09:40:42;;;;;;;15.27;5.80;;;;;;;18.25;51.41;101740.81;4982408;28;20371;-82
2022/11/07 09:43:38;;;;;;;12.02;6.20;;;;;;;18.35;51.44;101743.16;4983105;28;20536;-80
2022/11/07 09:46:25;;;;;;;21.00;6.28;;;;;;;18.40;51.05;101737.19;5016171;28;20418;-81
2022/11/07 09:49:08;;;;;;;12.55;6.00;;;;;;;18.30;51.03;101734.88;4987977;28;20415;-81
2022/11/07 09:52:02;;;;;;;12.52;5.80;;;;;;;18.34;51.31;101739.63;4986362;28;20411;-82
2022/11/07 09:54:33;;;;;;;10.45;6.03;;;;;;;18.19;51.33;101741.59;4961990;29;20381;-80
2022/11/07 09:57:02;;;;;;;11.73;6.10;;;;;;;18.17;51.32;101742.81;4988785;28;20395;-80
2022/11/07 09:59:42;;;;;;;11.73;6.47;;;;;;;18.17;51.37;101740.97;5024053;28;20387;-81
2022/11/07 10:02:24;;;;;;;14.55;7.20;;;;;;;18.31;51.51;101739.19;5018576;28;20384;-81
2022/11/07 10:04:56;;;;;;;11.52;6.82;;;;;;;18.37;51.04;101741.13;5016853;28;20480;-80
2022/11/07 10:07:32;;;;;;;13.55;7.25;;;;;;;18.56;50.80;101733.38;4987075;28;20410;-80
2022/11/07 10:10:14;;;;;;;14.52;7.95;;;;;;;18.60;50.53;101740.84;4986500;28;20419;-81
2022/11/07 10:13:15;;;;;;;16.05;7.93;;;;;;;18.72;50.38;101733.84;4985338;28;20884;-80
2022/11/07 10:16:26;;;;;;;15.95;7.10;;;;;;;18.75;50.33;101739.88;4994801;28;20367;-81
2022/11/07 10:19:04;;;;;;;14.47;7.87;;;;;;;18.73;50.27;101735.53;4976612;28;20454;-80
2022/11/07 10:21:44;;;;;;;15.50;7.10;;;;;;;18.77;50.13;101729.78;5002547;28;20439;-81
2022/11/07 10:24:45;;;;;;;14.23;7.15;;;;;;;18.74;49.94;101717.56;4985491;28;20428;-79
2022/11/07 10:27:11;;;;;;;16.63;7.90;;;;;;;18.67;50.19;101717.53;4986316;28;20390;-80
2022/11/07 10:29:46;;;;;;;15.77;7.65;;;;;;;18.70;50.01;101709.06;4988571;28;20492;-80
2022/11/07 10:32:21;;;;;;;17.13;7.70;;;;;;;18.81;49.84;101715.75;4988537;28;20383;-80
2022/11/07 10:35:25;;;;;;;13.82;7.35;;;;;;;18.81;49.70;101714.91;4990156;28;20387;-79
2022/11/07 10:38:13;;;;;;;11.50;6.53;;;;;;;18.85;49.95;101716.19;4989266;28;20360;-80
2022/11/07 10:40:41;;;;;;;10.82;6.20;;;;;;;18.77;49.84;101705.59;4978031;28;20431;-82
2022/11/07 10:43:15;;;;;;;14.15;6.97;;;;;;;18.93;49.59;101717.88;4983058;28;20502;-79
2022/11/07 10:45:41;;;;;;;17.00;7.75;;;;;;;18.93;49.59;101712.50;4987519;28;20401;-82
2022/11/07 10:48:06;;;;;;;11.65;6.57;;;;;;;18.91;49.53;101710.03;4991389;28;20392;-79
2022/11/07 10:50:32;;;;;;;14.77;7.00;;;;;;;18.93;49.50;101699.91;4989470;28;20916;-80
2022/11/07 10:53:08;;;;;;;17.63;7.43;;;;;;;19.05;49.36;101694.75;5005769;28;20829;-81
2022/11/07 10:55:54;;;;;;;13.32;7.05;;;;;;;19.12;49.38;101692.91;4996265;28;20384;-80
2022/11/07 10:58:25;;;;;;;14.45;6.47;;;;;;;19.21;49.14;101691.72;4989815;28;20442;-80
2022/11/07 11:01:06;;;;;;;15.87;6.20;;;;;;;19.32;49.00;101682.22;4992286;28;20413;-80
2022/11/07 11:03:39;;;;;;;13.50;6.65;;;;;;;19.25;48.92;101690.28;4983249;28;20422;-80
2022/11/07 11:06:21;;;;;;;13.45;6.25;;;;;;;19.27;48.77;101680.13;4982176;28;20380;-79
2022/11/07 11:08:50;;;;;;;13.35;6.30;;;;;;;19.26;48.39;101686.53;4989257;28;20461;-80
2022/11/07 11:11:40;;;;;;;22.77;6.88;;;;;;;19.27;48.44;101682.00;5010716;28;20414;-79
2022/11/07 11:14:11;;;;;;;12.48;6.65;;;;;;;19.13;48.74;101688.38;4989025;28;20474;-81
2022/11/07 11:16:40;;;;;;;21.48;8.98;;;;;;;19.29;48.41;101679.94;4989910;28;20414;-80
2022/11/07 11:19:17;;;;;;;14.40;6.53;;;;;;;19.43;48.19;101678.94;5019103;28;20382;-79
2022/11/07 11:21:46;;;;;;;14.95;6.00;;;;;;;19.50;47.96;101665.50;5020098;28;20387;-79
2022/11/07 11:24:20;;;;;;;22.80;6.40;;;;;;;19.65;47.80;101674.19;4988077;28;20462;-80
2022/11/07 11:26:49;;;;;;;17.70;6.50;;;;;;;19.61;47.21;101669.44;4988859;28;20411;-81
2022/11/07 11:29:26;;;;;;;12.45;6.00;;;;;;;19.59;47.52;101658.03;4989448;28;20411;-81
2022/11/07 11:31:56;;;;;;;18.63;6.60;;;;;;;19.66;47.33;101662.41;4980484;28;20384;-80
2022/11/07 11:34:44;;;;;;;45.42;8.25;;;;;;;19.64;47.36;101658.25;4990489;28;20407;-81
2022/11/07 11:37:24;;;;;;;21.23;6.47;;;;;;;19.79;47.42;101661.59;5017290;28;20383;-82
2022/11/07 11:39:58;;;;;;;42.70;7.60;;;;;;;19.96;47.22;101645.00;5003776;28;20387;-80